Time;durP1;ratioP1;P1;durP2;ratioP2;P2;SDS_P1;SDS_P2;PMS_P1;PMS_P2;Temp;Humidity;BMP_temperature;BMP_pressure;BME280_temperature;BME280_humidity;BME280_pressure;Samples;Min_cycle;Max_cycle;Signal;HPM_P1;HPM_P2
2023/03/28 00:03:51;;;;;;;2.80;1.77;;;0.50;96.50;;;;;;8308330;28;20193;-83
2023/03/28 00:07:52;;;;;;;2.83;1.50;;;0.60;1.00;;;;;;8328211;28;20207;-83
2023/03/28 00:11:53;;;;;;;3.97;1.50;;;0.60;99.90;;;;;;8333000;28;20182;-83
2023/03/28 00:15:54;;;;;;;2.50;1.27;;;0.70;99.90;;;;;;8332040;28;20188;-84
2023/03/28 00:19:55;;;;;;;3.20;1.60;;;0.80;99.90;;;;;;8319860;28;20195;-83
2023/03/28 00:24:01;;;;;;;2.90;2.00;;;0.80;99.90;;;;;;8312986;28;20276;-83
2023/03/28 00:28:02;;;;;;;3.13;2.00;;;0.80;99.90;;;;;;8315064;28;20208;-83
2023/03/28 00:32:03;;;;;;;4.00;2.33;;;0.70;25.70;;;;;;8304527;28;20193;-84
2023/03/28 00:36:05;;;;;;;3.83;3.13;;;0.70;99.90;;;;;;8310628;28;20267;-83
2023/03/28 00:40:07;;;;;;;4.67;3.37;;;0.70;17.90;;;;;;8310725;28;20193;-84
2023/03/28 00:44:42;;;;;;;7.33;3.40;;;0.70;99.90;;;;;;8301365;28;20188;-83
2023/03/28 00:48:50;;;;;;;4.53;3.30;;;0.70;99.90;;;;;;8300807;28;21664;-84
2023/03/28 00:53:22;;;;;;;4.57;3.00;;;0.70;99.90;;;;;;8307326;28;20570;-84
2023/03/28 00:57:25;;;;;;;4.83;3.23;;;0.70;99.90;;;;;;8298726;28;20201;-85
2023/03/28 01:01:26;;;;;;;3.87;3.20;;;0.70;99.90;;;;;;8304801;28;20216;-83
2023/03/28 01:05:30;;;;;;;5.30;2.80;;;0.70;99.90;;;;;;8301024;28;20215;-83
2023/03/28 01:09:31;;;;;;;3.33;2.60;;;0.70;99.90;;;;;;8306272;28;20543;-82
2023/03/28 01:13:36;;;;;;;4.73;2.73;;;0.70;99.90;;;;;;8307408;28;20192;-83
2023/03/28 01:17:37;;;;;;;4.23;2.80;;;0.70;1.00;;;;;;8299411;28;20189;-83
2023/03/28 01:22:01;;;;;;;3.17;2.53;;;0.70;1.00;;;;;;8301670;28;20271;-83
2023/03/28 01:26:50;;;;;;;7.87;2.77;;;0.60;1.00;;;;;;8293719;28;20247;-83
2023/03/28 01:31:19;;;;;;;5.30;2.40;;;0.60;99.90;;;;;;8296180;28;20212;-84
2023/03/28 01:35:29;;;;;;;4.50;2.60;;;0.60;99.90;;;;;;8296728;28;20213;-84
2023/03/28 01:39:41;;;;;;;4.53;2.30;;;0.60;82.00;;;;;;8315919;28;20200;-84
2023/03/28 01:44:01;;;;;;;5.23;2.10;;;0.70;1.00;;;;;;8308139;28;20188;-84
2023/03/28 01:48:21;;;;;;;2.50;1.80;;;0.70;99.90;;;;;;8301382;28;20215;-83
2023/03/28 01:52:45;;;;;;;4.80;2.00;;;0.70;99.90;;;;;;8303698;28;20191;-84
2023/03/28 01:56:55;;;;;;;3.50;1.57;;;0.70;99.90;;;;;;8298044;28;20214;-83
2023/03/28 02:01:04;;;;;;;3.33;1.30;;;0.70;22.80;;;;;;8300224;28;20212;-84
2023/03/28 02:05:10;;;;;;;3.50;1.50;;;0.80;1.00;;;;;;8303504;28;20198;-83
2023/03/28 02:09:13;;;;;;;5.90;1.27;;;0.70;1.00;;;;;;8301966;28;20241;-83
2023/03/28 02:13:20;;;;;;;7.00;1.53;;;0.70;1.00;;;;;;8305943;28;20262;-83
2023/03/28 02:17:25;;;;;;;6.30;1.67;;;0.60;1.00;;;;;;8307399;28;20188;-84
2023/03/28 02:21:40;;;;;;;3.13;1.53;;;0.60;1.00;;;;;;8309598;28;20269;-82
2023/03/28 02:25:41;;;;;;;4.00;1.47;;;0.50;1.00;;;;;;8310378;28;20222;-83
2023/03/28 02:29:42;;;;;;;2.60;1.17;;;0.50;1.00;;;;;;8311352;28;20218;-84
2023/03/28 02:33:45;;;;;;;2.17;1.20;;;0.50;1.00;;;;;;8315524;28;20314;-84
2023/03/28 02:38:17;;;;;;;2.83;1.57;;;0.60;1.00;;;;;;8318581;28;20276;-84
2023/03/28 02:42:53;;;;;;;1.80;0.83;;;0.50;1.00;;;;;;8306827;28;20200;-84
2023/03/28 02:47:06;;;;;;;3.43;1.00;;;0.50;1.00;;;;;;8325299;28;20223;-86
2023/03/28 02:51:40;;;;;;;2.57;1.07;;;0.50;4.60;;;;;;8325318;28;20205;-83
2023/03/28 02:56:04;;;;;;;1.87;0.60;;;0.40;1.00;;;;;;8304435;28;20187;-84
2023/03/28 03:00:17;;;;;;;2.50;1.00;;;0.30;1.00;;;;;;8323912;28;20190;-85
2023/03/28 03:04:18;;;;;;;2.70;1.03;;;0.20;27.00;;;;;;8310275;28;20189;-84
2023/03/28 03:08:19;;;;;;;1.93;0.73;;;0.20;99.90;;;;;;8310613;28;20229;-84
2023/03/28 03:12:22;;;;;;;0.97;0.83;;;0.10;1.00;;;;;;8310962;28;20191;-85
2023/03/28 03:16:22;;;;;;;2.67;1.03;;;-0.10;1.00;;;;;;8305194;28;20211;-84
2023/03/28 03:20:27;;;;;;;1.73;0.63;;;-0.20;99.90;;;;;;8304374;28;20210;-83
2023/03/28 03:24:27;;;;;;;3.23;1.40;;;-0.20;99.90;;;;;;8306749;28;20222;-83
2023/03/28 03:28:28;;;;;;;1.70;1.20;;;-0.20;99.90;;;;;;8310946;28;20324;-82
2023/03/28 03:32:29;;;;;;;1.10;0.90;;;-0.20;1.00;;;;;;8305886;28;20191;-83
2023/03/28 03:36:30;;;;;;;1.50;1.10;;;-0.20;99.90;;;;;;8320212;28;20221;-85
2023/03/28 03:40:31;;;;;;;2.53;1.40;;;-0.20;99.90;;;;;;8305923;28;20219;-83
2023/03/28 03:44:32;;;;;;;1.70;1.10;;;-0.20;99.90;;;;;;8309514;28;20198;-84
2023/03/28 03:48:33;;;;;;;1.27;0.90;;;-0.20;99.90;;;;;;8300736;28;20218;-83
2023/03/28 03:52:34;;;;;;;2.13;1.20;;;-0.30;23.80;;;;;;8309386;28;20178;-84
2023/03/28 03:56:35;;;;;;;1.07;0.90;;;-0.30;1.00;;;;;;8300259;28;20245;-83
2023/03/28 04:00:36;;;;;;;1.10;1.00;;;-0.30;1.00;;;;;;8311365;28;20183;-84
2023/03/28 04:04:39;;;;;;;1.17;0.77;;;-0.30;1.00;;;;;;8300925;28;20190;-84
2023/03/28 04:08:40;;;;;;;1.37;0.77;;;-0.30;1.00;;;;;;8302758;28;20213;-84
2023/03/28 04:12:40;;;;;;;2.30;0.90;;;-0.30;1.00;;;;;;8312159;28;20179;-81
2023/03/28 04:16:41;;;;;;;2.50;1.03;;;-0.40;1.00;;;;;;8309798;28;20180;-83
2023/03/28 04:20:45;;;;;;;1.30;0.80;;;-0.40;1.00;;;;;;8308249;28;20194;-83
2023/03/28 04:24:48;;;;;;;3.10;1.30;;;-0.30;1.00;;;;;;8299705;28;20180;-83
2023/03/28 04:28:49;;;;;;;2.63;1.37;;;-0.30;1.00;;;;;;8300324;28;20211;-84
2023/03/28 04:32:53;;;;;;;2.97;1.17;;;-0.30;1.00;;;;;;8308116;28;20187;-83
2023/03/28 04:36:55;;;;;;;3.13;0.83;;;-0.20;1.00;;;;;;8301371;28;20195;-85
2023/03/28 04:40:57;;;;;;;1.70;1.00;;;-0.20;1.00;;;;;;8302750;28;20175;-82
2023/03/28 04:44:57;;;;;;;2.00;1.23;;;-0.20;99.90;;;;;;8300907;28;20592;-84
2023/03/28 04:48:58;;;;;;;2.80;0.87;;;-0.20;99.90;;;;;;8312717;28;20218;-84
2023/03/28 04:52:59;;;;;;;3.40;1.30;;;-0.10;99.90;;;;;;8309219;28;20309;-84
2023/03/28 04:57:01;;;;;;;2.33;1.10;;;-0.10;99.90;;;;;;8310146;28;20532;-81
2023/03/28 05:01:02;;;;;;;2.50;1.20;;;-0.10;99.90;;;;;;8302530;28;20245;-81
2023/03/28 05:05:02;;;;;;;3.10;0.93;;;-0.10;99.90;;;;;;8322060;28;20206;-81
2023/03/28 05:09:03;;;;;;;2.70;1.10;;;-0.10;99.90;;;;;;8318117;28;20226;-82
2023/03/28 05:13:05;;;;;;;1.70;0.93;;;-0.10;99.90;;;;;;8339791;28;20184;-81
2023/03/28 05:17:06;;;;;;;2.53;1.40;;;-0.10;99.90;;;;;;8349309;28;20201;-81
2023/03/28 05:21:06;;;;;;;1.73;1.13;;;-0.10;1.00;;;;;;8349658;28;20208;-81
2023/03/28 05:25:08;;;;;;;1.50;1.00;;;-0.10;99.90;;;;;;8323834;28;20214;-80
2023/03/28 05:29:09;;;;;;;1.60;1.27;;;-0.10;1.00;;;;;;8304154;28;20218;-80
2023/03/28 05:33:10;;;;;;;6.43;1.57;;;-0.10;1.00;;;;;;8303560;28;20183;-80
2023/03/28 05:37:10;;;;;;;1.73;1.10;;;-0.10;1.00;;;;;;8308379;28;20206;-80
2023/03/28 05:41:12;;;;;;;3.53;1.27;;;-0.10;1.00;;;;;;8309410;28;20212;-80
2023/03/28 05:45:13;;;;;;;1.93;1.17;;;-0.10;1.00;;;;;;8309080;28;20214;-80
2023/03/28 05:49:14;;;;;;;2.83;1.20;;;-0.10;1.00;;;;;;8298548;28;20249;-80
2023/03/28 05:53:15;;;;;;;5.27;1.50;;;-0.20;1.00;;;;;;8306688;28;20191;-80
2023/03/28 05:57:16;;;;;;;3.20;1.50;;;-0.10;1.00;;;;;;8307108;28;20190;-79
2023/03/28 06:01:17;;;;;;;2.47;1.17;;;-0.10;1.00;;;;;;8309779;28;20186;-80
2023/03/28 06:05:18;;;;;;;2.07;1.27;;;-0.10;1.00;;;;;;8309575;28;20255;-80
2023/03/28 06:09:19;;;;;;;2.93;1.60;;;-0.10;1.00;;;;;;8304133;28;20213;-80
2023/03/28 06:13:20;;;;;;;2.80;1.27;;;-0.10;99.90;;;;;;8303259;28;20237;-79
2023/03/28 06:17:21;;;;;;;3.50;1.57;;;0.00;1.00;;;;;;8305903;28;20199;-79
2023/03/28 06:21:21;;;;;;;3.73;1.47;;;0.00;99.90;;;;;;8297261;28;20194;-79
2023/03/28 06:25:22;;;;;;;2.73;1.40;;;0.10;99.90;;;;;;8300902;28;20195;-79
2023/03/28 06:29:23;;;;;;;4.17;1.67;;;0.10;99.90;;;;;;8311265;28;20212;-79
2023/03/28 06:33:24;;;;;;;3.93;1.60;;;0.20;99.90;;;;;;8308494;28;20270;-79
2023/03/28 06:37:25;;;;;;;4.60;1.90;;;0.30;99.90;;;;;;8307371;28;20207;-79
2023/03/28 06:41:26;;;;;;;5.50;1.60;;;0.40;99.90;;;;;;8306523;28;20176;-79
2023/03/28 06:45:27;;;;;;;2.40;1.57;;;0.40;99.90;;;;;;8309061;28;20175;-79
2023/03/28 06:49:28;;;;;;;2.43;1.27;;;0.40;99.90;;;;;;8305658;28;20238;-79
2023/03/28 06:53:29;;;;;;;3.93;1.63;;;0.40;99.90;;;;;;8306736;28;20187;-78
2023/03/28 06:57:30;;;;;;;2.07;1.37;;;0.50;99.90;;;;;;8305540;28;20188;-78
2023/03/28 07:01:31;;;;;;;5.50;1.70;;;0.60;99.90;;;;;;8309057;28;20191;-79
2023/03/28 07:05:40;;;;;;;2.03;1.00;;;0.70;99.90;;;;;;8304269;28;20219;-78
2023/03/28 07:09:41;;;;;;;5.00;0.93;;;0.70;99.90;;;;;;8311468;28;20281;-80
2023/03/28 07:13:42;;;;;;;3.13;0.90;;;0.80;99.90;;;;;;8306542;28;20194;-79
2023/03/28 07:17:43;;;;;;;2.30;1.07;;;0.90;99.90;;;;;;8306694;28;20215;-79
2023/03/28 07:21:43;;;;;;;1.50;0.80;;;0.90;99.90;;;;;;8302805;28;20246;-79
2023/03/28 07:25:44;;;;;;;1.43;0.87;;;0.90;99.90;;;;;;8319112;28;20203;-79
2023/03/28 07:29:45;;;;;;;2.10;1.10;;;1.10;99.90;;;;;;8307704;28;20212;-80
2023/03/28 07:33:48;;;;;;;1.43;0.70;;;1.30;48.50;;;;;;8314743;28;20190;-79
2023/03/28 07:37:49;;;;;;;2.03;0.73;;;1.50;1.00;;;;;;8317013;28;20212;-79
2023/03/28 07:41:49;;;;;;;1.47;0.60;;;1.70;1.00;;;;;;8330473;28;20198;-79
2023/03/28 07:45:52;;;;;;;2.13;1.10;;;1.80;1.00;;;;;;8347216;28;20245;-81
2023/03/28 07:49:53;;;;;;;2.90;1.20;;;1.60;1.00;;;;;;8362107;28;20228;-81
2023/03/28 07:53:54;;;;;;;1.73;0.80;;;1.30;1.00;;;;;;8344303;28;20193;-80
2023/03/28 07:57:55;;;;;;;3.30;0.90;;;1.10;1.00;;;;;;8308209;28;20205;-80
2023/03/28 08:01:56;;;;;;;1.67;0.73;;;1.10;1.00;;;;;;8314515;28;20188;-79
2023/03/28 08:06:01;;;;;;;3.20;1.27;;;1.20;1.00;;;;;;8319550;28;20331;-79
2023/03/28 08:10:02;;;;;;;1.10;0.70;;;1.30;1.00;;;;;;8312715;28;20294;-79
2023/03/28 08:14:05;;;;;;;3.93;0.90;;;1.00;1.00;;;;;;8301695;28;20263;-79
2023/03/28 08:18:06;;;;;;;3.27;1.10;;;1.30;1.00;;;;;;8285424;28;20205;-79
2023/03/28 08:22:09;;;;;;;2.23;1.20;;;1.70;1.00;;;;;;8311263;28;20213;-80
2023/03/28 08:26:11;;;;;;;1.03;0.60;;;2.20;1.00;;;;;;8310205;28;20508;-80
2023/03/28 08:30:12;;;;;;;1.30;0.57;;;1.90;1.00;;;;;;8310319;28;20223;-79
2023/03/28 08:34:13;;;;;;;1.60;0.73;;;1.70;1.00;;;;;;8309996;28;20185;-79
2023/03/28 08:38:14;;;;;;;3.63;0.80;;;1.90;1.00;;;;;;8301338;28;20525;-80
2023/03/28 08:42:15;;;;;;;1.43;0.50;;;1.80;1.00;;;;;;8302785;28;20202;-80
2023/03/28 08:46:17;;;;;;;2.70;0.90;;;1.90;1.00;;;;;;8301451;28;20200;-80
2023/03/28 08:50:30;;;;;;;4.10;0.83;;;1.70;1.00;;;;;;8317861;28;20216;-80
2023/03/28 08:54:37;;;;;;;3.60;0.70;;;2.10;1.00;;;;;;8298764;28;20270;-81
2023/03/28 08:59:03;;;;;;;2.03;1.10;;;2.00;1.00;;;;;;8316516;28;20275;-80
2023/03/28 09:03:23;;;;;;;4.60;1.43;;;2.00;1.00;;;;;;8286979;28;20228;-80
2023/03/28 09:07:54;;;;;;;0.80;0.60;;;2.30;1.00;;;;;;8304308;28;20216;-80
2023/03/28 09:12:06;;;;;;;1.43;0.50;;;2.30;1.00;;;;;;8309156;28;20209;-80
2023/03/28 09:16:31;;;;;;;2.07;0.60;;;2.10;1.00;;;;;;8303920;28;20276;-80
2023/03/28 09:20:35;;;;;;;2.10;0.60;;;2.40;1.00;;;;;;8309045;28;20207;-81
2023/03/28 09:24:55;;;;;;;2.90;0.70;;;3.10;1.00;;;;;;8311117;28;20186;-80
2023/03/28 09:29:05;;;;;;;1.33;0.80;;;2.50;1.00;;;;;;8298957;28;20229;-81
2023/03/28 09:33:14;;;;;;;3.73;1.70;;;2.40;1.00;;;;;;8301093;28;20245;-80
2023/03/28 09:37:49;;;;;;;0.60;0.40;;;2.30;1.00;;;;;;8300630;28;20234;-81
2023/03/28 09:42:13;;;;;;;1.57;0.97;;;2.30;1.00;;;;;;8303374;28;20190;-79
2023/03/28 09:46:29;;;;;;;1.37;0.70;;;2.60;1.00;;;;;;8295335;28;20190;-80
2023/03/28 09:50:30;;;;;;;1.17;0.60;;;2.20;1.00;;;;;;8305548;28;20257;-81
2023/03/28 09:54:34;;;;;;;1.90;0.60;;;1.80;1.00;;;;;;8302318;28;20190;-80
2023/03/28 09:58:53;;;;;;;2.23;0.77;;;1.90;1.00;;;;;;8304560;28;20185;-80
2023/03/28 10:02:54;;;;;;;1.90;0.50;;;2.30;1.00;;;;;;8297539;28;20203;-80
2023/03/28 10:07:27;;;;;;;1.70;0.90;;;2.20;1.00;;;;;;8307914;28;20190;-81
2023/03/28 10:11:28;;;;;;;3.03;0.30;;;2.60;1.00;;;;;;8330107;28;20186;-81
2023/03/28 10:15:34;;;;;;;0.90;0.80;;;2.60;1.00;;;;;;8319133;28;20182;-82
2023/03/28 10:19:39;;;;;;;2.83;1.53;;;2.60;1.00;;;;;;8340502;28;20221;-81
2023/03/28 10:23:57;;;;;;;1.80;0.90;;;2.50;1.00;;;;;;8352618;28;20171;-82
2023/03/28 10:27:59;;;;;;;1.23;0.77;;;2.20;1.00;;;;;;8347164;28;20257;-81
2023/03/28 10:32:00;;;;;;;4.77;1.10;;;2.00;1.00;;;;;;8328985;28;20640;-81
2023/03/28 10:36:08;;;;;;;1.30;0.70;;;1.60;1.00;;;;;;8301091;28;20441;-80
2023/03/28 10:40:24;;;;;;;1.60;0.90;;;1.60;1.00;;;;;;8302854;28;20194;-80
2023/03/28 10:44:29;;;;;;;3.03;0.80;;;2.00;1.00;;;;;;8303005;28;20287;-80
2023/03/28 10:48:33;;;;;;;4.63;1.30;;;2.40;1.00;;;;;;8312461;28;20303;-80
2023/03/28 10:52:47;;;;;;;1.60;0.90;;;2.10;1.00;;;;;;8311544;28;20193;-80
2023/03/28 10:57:07;;;;;;;2.23;0.90;;;1.60;1.00;;;;;;8320450;28;20184;-79
2023/03/28 11:01:21;;;;;;;1.60;0.97;;;1.60;1.00;;;;;;8304200;28;20276;-80
2023/03/28 11:05:26;;;;;;;2.37;1.57;;;2.00;1.00;;;;;;8311552;28;20190;-80
2023/03/28 11:10:07;;;;;;;1.60;0.97;;;2.70;1.00;;;;;;8301822;28;20207;-81
2023/03/28 11:14:21;;;;;;;2.33;0.90;;;3.20;1.00;;;;;;8319642;28;20188;-80
2023/03/28 11:18:33;;;;;;;1.80;0.63;;;3.20;1.00;;;;;;8311270;28;20270;-80
2023/03/28 11:22:42;;;;;;;2.63;1.07;;;2.80;1.00;;;;;;8312474;28;20206;-81
2023/03/28 11:27:04;;;;;;;2.47;1.20;;;2.30;1.00;;;;;;8301401;28;20222;-79
2023/03/28 11:31:10;;;;;;;5.83;2.07;;;2.00;1.00;;;;;;8299794;28;20220;-79
2023/03/28 11:35:21;;;;;;;2.20;0.83;;;1.90;1.00;;;;;;8305191;28;20218;-79
2023/03/28 11:39:44;;;;;;;3.83;0.80;;;2.30;1.00;;;;;;8320334;28;20341;-80
2023/03/28 11:43:56;;;;;;;3.60;0.67;;;2.80;1.00;;;;;;8305431;28;20585;-80
2023/03/28 11:48:04;;;;;;;5.00;2.30;;;3.10;1.00;;;;;;8301338;28;20203;-79
2023/03/28 11:52:15;;;;;;;3.10;0.90;;;3.20;1.00;;;;;;8306624;28;20191;-81
2023/03/28 11:56:27;;;;;;;4.00;0.97;;;2.10;1.00;;;;;;8307891;28;20246;-79
2023/03/28 12:00:40;;;;;;;4.47;1.50;;;1.10;99.90;;;;;;8309825;28;20183;-80
2023/03/28 12:04:48;;;;;;;3.67;1.50;;;1.30;99.90;;;;;;8311886;28;20197;-80
2023/03/28 12:08:59;;;;;;;2.33;1.13;;;1.60;99.90;;;;;;8309243;28;20211;-79
2023/03/28 12:13:10;;;;;;;2.40;1.00;;;1.60;99.90;;;;;;8310928;28;20281;-79
2023/03/28 12:17:27;;;;;;;1.77;0.60;;;1.90;99.90;;;;;;8307214;28;20244;-80
2023/03/28 12:21:37;;;;;;;1.70;0.73;;;2.40;1.00;;;;;;8302858;28;20202;-79
2023/03/28 12:25:47;;;;;;;3.30;1.20;;;2.70;1.00;;;;;;8302354;28;20230;-80
2023/03/28 12:29:58;;;;;;;2.03;0.97;;;3.20;1.00;;;;;;8321794;28;20214;-80
2023/03/28 12:34:13;;;;;;;2.97;0.83;;;2.90;1.00;;;;;;8298864;28;20214;-81
2023/03/28 12:38:32;;;;;;;3.03;0.83;;;2.80;1.00;;;;;;8305379;28;20194;-81
2023/03/28 12:42:35;;;;;;;2.17;0.90;;;2.70;1.00;;;;;;8318052;28;20199;-80
2023/03/28 12:46:48;;;;;;;1.70;0.90;;;2.50;1.00;;;;;;8313058;28;20186;-80
2023/03/28 12:50:55;;;;;;;2.77;0.73;;;2.40;1.00;;;;;;8322424;28;20262;-80
2023/03/28 12:55:00;;;;;;;1.23;0.80;;;2.20;1.00;;;;;;8344318;28;20207;-82
2023/03/28 12:59:34;;;;;;;2.90;0.90;;;2.30;1.00;;;;;;8362770;28;20171;-80
2023/03/28 13:03:53;;;;;;;2.23;0.87;;;2.60;1.00;;;;;;8359594;28;20262;-80
2023/03/28 13:08:08;;;;;;;2.87;0.70;;;3.40;1.00;;;;;;8333412;28;20262;-80
2023/03/28 13:12:40;;;;;;;1.67;0.93;;;3.30;1.00;;;;;;8301295;28;20188;-79
2023/03/28 13:16:52;;;;;;;2.27;1.60;;;2.20;1.00;;;;;;8297585;28;20186;-79
2023/03/28 13:20:54;;;;;;;1.60;1.10;;;1.60;99.90;;;;;;8299587;28;20247;-80
2023/03/28 13:25:15;;;;;;;3.80;1.63;;;1.50;99.90;;;;;;8308646;28;20242;-79
2023/03/28 13:29:16;;;;;;;1.53;0.83;;;1.80;99.90;;;;;;8317835;28;20209;-80
2023/03/28 13:33:26;;;;;;;1.10;0.70;;;2.00;99.90;;;;;;8300497;28;20189;-80
2023/03/28 13:37:45;;;;;;;2.80;1.07;;;2.10;99.90;;;;;;8305104;28;20218;-80
2023/03/28 13:41:46;;;;;;;1.93;1.03;;;2.20;75.30;;;;;;8316661;28;20179;-80
2023/03/28 13:45:49;;;;;;;0.90;0.60;;;2.40;89.20;;;;;;8299985;28;20194;-79
2023/03/28 13:49:58;;;;;;;4.03;1.10;;;2.80;76.60;;;;;;8305678;28;20270;-79
2023/03/28 13:53:58;;;;;;;1.70;1.03;;;3.30;46.30;;;;;;8307696;28;20274;-80
2023/03/28 13:58:00;;;;;;;3.47;1.00;;;3.70;29.20;;;;;;8303496;28;20296;-80
2023/03/28 14:02:17;;;;;;;1.23;0.93;;;3.60;1.00;;;;;;8285056;28;20210;-80
2023/03/28 14:06:40;;;;;;;1.87;0.93;;;3.40;1.00;;;;;;8316528;28;20191;-80
2023/03/28 14:10:43;;;;;;;2.97;0.80;;;3.30;1.00;;;;;;8298678;28;20207;-79
2023/03/28 14:14:51;;;;;;;0.90;0.50;;;3.50;1.00;;;;;;8299224;28;20186;-80
2023/03/28 14:18:52;;;;;;;2.37;1.00;;;3.60;1.00;;;;;;8309870;28;20202;-79
2023/03/28 14:22:54;;;;;;;1.80;0.77;;;3.90;1.00;;;;;;8317829;28;21334;-80
2023/03/28 14:27:09;;;;;;;2.43;1.27;;;4.00;1.00;;;;;;8312531;28;20212;-79
2023/03/28 14:31:39;;;;;;;2.30;0.80;;;4.00;1.00;;;;;;8318758;28;20206;-81
2023/03/28 14:35:49;;;;;;;3.97;1.07;;;3.90;1.00;;;;;;8312222;28;20281;-82
2023/03/28 14:39:51;;;;;;;2.03;0.80;;;3.90;1.00;;;;;;8318235;28;20499;-81
2023/03/28 14:43:57;;;;;;;1.80;0.87;;;3.90;1.00;;;;;;8316132;28;20179;-81
2023/03/28 14:47:59;;;;;;;1.70;0.73;;;3.90;1.00;;;;;;8312758;28;20209;-82
2023/03/28 14:52:03;;;;;;;2.63;1.10;;;4.10;1.00;;;;;;8317996;28;20182;-80
2023/03/28 14:56:11;;;;;;;1.97;1.07;;;4.30;1.00;;;;;;8317402;28;20178;-82
2023/03/28 15:00:15;;;;;;;1.00;0.60;;;4.50;1.00;;;;;;8313478;28;20190;-81
2023/03/28 15:04:19;;;;;;;1.73;1.03;;;4.30;1.00;;;;;;8318928;28;20191;-81
2023/03/28 15:08:32;;;;;;;1.33;0.60;;;4.20;1.00;;;;;;8318502;28;20234;-82
2023/03/28 15:12:59;;;;;;;2.13;0.93;;;4.00;1.00;;;;;;8320131;28;20274;-81
2023/03/28 15:17:00;;;;;;;2.43;1.00;;;3.80;1.00;;;;;;8313286;28;20224;-81
2023/03/28 15:21:02;;;;;;;2.67;1.30;;;3.60;1.00;;;;;;8307749;28;20515;-82
2023/03/28 15:25:04;;;;;;;4.20;1.00;;;3.50;1.00;;;;;;8319144;28;20248;-81
2023/03/28 15:29:07;;;;;;;2.17;1.47;;;3.70;1.00;;;;;;8320568;28;20227;-81
2023/03/28 15:33:19;;;;;;;2.30;1.00;;;3.80;1.00;;;;;;8329496;28;20188;-81
2023/03/28 15:37:23;;;;;;;1.40;1.10;;;3.70;1.00;;;;;;8343834;28;20208;-81
2023/03/28 15:41:45;;;;;;;1.43;0.70;;;3.60;1.00;;;;;;8344328;28;20199;-81
2023/03/28 15:45:57;;;;;;;8.77;3.70;;;3.70;1.00;;;;;;8363816;28;20193;-81
2023/03/28 15:50:07;;;;;;;3.57;1.10;;;3.80;1.00;;;;;;8328907;28;20241;-78
2023/03/28 15:54:12;;;;;;;5.37;1.73;;;4.00;1.00;;;;;;8307511;28;20186;-80
2023/03/28 15:58:19;;;;;;;4.17;1.60;;;4.10;1.00;;;;;;8310438;28;20187;-78
2023/03/28 16:02:23;;;;;;;1.03;0.93;;;4.30;1.00;;;;;;8306946;28;20197;-79
2023/03/28 16:06:24;;;;;;;2.23;1.23;;;4.30;1.00;;;;;;8311635;28;20190;-79
2023/03/28 16:10:26;;;;;;;1.37;1.07;;;4.20;1.00;;;;;;8308177;28;20219;-80
2023/03/28 16:14:27;;;;;;;1.80;0.90;;;4.10;1.00;;;;;;8308272;28;20237;-79
2023/03/28 16:18:27;;;;;;;1.13;0.70;;;3.90;1.00;;;;;;8307517;28;20179;-79
2023/03/28 16:22:28;;;;;;;5.47;2.73;;;3.60;1.00;;;;;;8302376;28;20298;-79
2023/03/28 16:26:29;;;;;;;4.10;1.20;;;3.50;1.00;;;;;;8297219;28;20191;-78
2023/03/28 16:30:35;;;;;;;2.27;1.10;;;3.50;1.00;;;;;;8302212;28;20222;-79
2023/03/28 16:34:35;;;;;;;4.33;1.93;;;3.40;1.00;;;;;;8307314;28;20206;-78
2023/03/28 16:38:36;;;;;;;2.97;1.33;;;3.40;1.00;;;;;;8303591;28;20195;-79
2023/03/28 16:42:37;;;;;;;1.83;1.00;;;3.30;1.00;;;;;;8305836;28;20242;-78
2023/03/28 16:46:38;;;;;;;2.37;1.30;;;3.20;1.00;;;;;;8306590;28;20186;-79
2023/03/28 16:50:39;;;;;;;2.60;1.60;;;3.10;1.00;;;;;;8305391;28;20241;-78
2023/03/28 16:54:39;;;;;;;2.60;1.20;;;3.00;1.00;;;;;;8306579;28;20191;-78
2023/03/28 16:58:41;;;;;;;3.27;1.57;;;2.90;1.00;;;;;;8309922;28;20186;-78
2023/03/28 17:02:43;;;;;;;2.33;1.13;;;2.90;1.00;;;;;;8306998;28;20214;-78
2023/03/28 17:06:44;;;;;;;2.70;1.70;;;2.70;1.00;;;;;;8318950;28;20232;-78
2023/03/28 17:10:46;;;;;;;4.07;2.40;;;2.50;1.00;;;;;;8304481;28;20214;-79
2023/03/28 17:14:47;;;;;;;3.13;1.17;;;2.30;1.00;;;;;;8306011;28;20240;-78
2023/03/28 17:18:48;;;;;;;2.03;1.10;;;2.20;1.00;;;;;;8306483;28;20183;-79
2023/03/28 17:22:49;;;;;;;3.03;1.60;;;2.00;1.00;;;;;;8306662;28;20197;-78
2023/03/28 17:26:50;;;;;;;6.10;2.17;;;1.70;1.00;;;;;;8310036;28;20179;-78
2023/03/28 17:30:51;;;;;;;3.67;1.43;;;1.30;1.00;;;;;;8308271;28;20236;-78
2023/03/28 17:34:52;;;;;;;4.63;1.60;;;1.00;1.00;;;;;;8299644;28;20285;-78
2023/03/28 17:38:56;;;;;;;3.50;1.20;;;0.70;1.00;;;;;;8309097;28;20194;-79
2023/03/28 17:42:57;;;;;;;1.73;0.90;;;0.40;1.00;;;;;;8304612;28;20230;-78
2023/03/28 17:46:59;;;;;;;3.00;1.20;;;0.10;1.00;;;;;;8305979;28;20208;-82
2023/03/28 17:51:00;;;;;;;1.60;0.90;;;-0.10;1.00;;;;;;8299126;28;20232;-83
2023/03/28 17:55:01;;;;;;;2.00;0.80;;;-0.40;1.00;;;;;;8301862;28;20249;-82
2023/03/28 17:59:02;;;;;;;1.83;0.80;;;-0.60;1.00;;;;;;8300153;28;20196;-82
2023/03/28 18:03:03;;;;;;;0.90;0.70;;;-0.90;1.00;;;;;;8307441;28;20192;-83
2023/03/28 18:07:04;;;;;;;1.63;1.00;;;-1.20;1.00;;;;;;8302894;28;20223;-83
2023/03/28 18:11:08;;;;;;;3.43;0.70;;;-1.40;13.10;;;;;;8300957;28;20226;-83
2023/03/28 18:15:09;;;;;;;1.83;0.70;;;-1.60;32.10;;;;;;8298741;28;20182;-83
2023/03/28 18:19:16;;;;;;;1.37;0.80;;;-1.80;60.90;;;;;;8308834;28;20200;-83
2023/03/28 18:23:17;;;;;;;0.70;0.60;;;-2.00;91.40;;;;;;8309286;28;20198;-84
2023/03/28 18:27:18;;;;;;;0.90;0.60;;;-2.10;99.90;;;;;;8312993;28;20194;-84
2023/03/28 18:31:25;;;;;;;0.77;0.43;;;-2.20;99.90;;;;;;8316124;28;20197;-83
2023/03/28 18:35:26;;;;;;;0.70;0.40;;;-2.30;99.90;;;;;;8320419;28;20215;-85
2023/03/28 18:39:28;;;;;;;2.03;0.83;;;-2.40;99.90;;;;;;8318849;28;20285;-84
2023/03/28 18:43:28;;;;;;;1.80;0.90;;;-2.50;99.90;;;;;;8306106;28;20278;-81
2023/03/28 18:47:29;;;;;;;1.07;0.70;;;-2.60;99.90;;;;;;8309166;28;20193;-82
2023/03/28 18:51:31;;;;;;;2.80;0.60;;;-2.70;99.90;;;;;;8301456;28;20273;-83
2023/03/28 18:55:32;;;;;;;1.37;0.80;;;-2.80;99.90;;;;;;8299140;28;20205;-82
2023/03/28 18:59:34;;;;;;;3.37;2.03;;;-2.90;99.90;;;;;;8296726;28;20199;-82
2023/03/28 19:03:41;;;;;;;2.37;1.30;;;-2.90;99.90;;;;;;8304892;28;20194;-82
2023/03/28 19:07:43;;;;;;;2.10;0.90;;;-3.00;99.90;;;;;;8304574;28;20242;-83
2023/03/28 19:11:45;;;;;;;0.87;0.60;;;-3.00;99.90;;;;;;8308846;28;20182;-82
2023/03/28 19:15:46;;;;;;;1.10;0.60;;;-3.10;99.90;;;;;;8308529;28;20184;-83
2023/03/28 19:19:46;;;;;;;1.30;0.63;;;-3.10;99.90;;;;;;8306484;28;20190;-83
2023/03/28 19:23:48;;;;;;;1.10;0.80;;;-3.20;99.90;;;;;;8306281;28;20200;-84
2023/03/28 19:27:50;;;;;;;1.63;0.60;;;-3.30;99.90;;;;;;8308892;28;20242;-83
2023/03/28 19:31:51;;;;;;;1.23;0.80;;;-3.40;99.90;;;;;;8306428;28;20179;-83
2023/03/28 19:35:53;;;;;;;2.27;0.53;;;-3.40;99.90;;;;;;8309152;28;20950;-82
2023/03/28 19:39:57;;;;;;;1.33;0.60;;;-3.50;99.90;;;;;;8306769;28;20199;-83
2023/03/28 19:43:59;;;;;;;1.50;0.83;;;-3.60;99.90;;;;;;8306366;28;20191;-82
2023/03/28 19:48:00;;;;;;;2.53;0.70;;;-3.70;99.90;;;;;;8307836;28;20293;-82
2023/03/28 19:52:03;;;;;;;1.03;0.70;;;-3.70;1.00;;;;;;8307430;28;20202;-83
2023/03/28 19:56:05;;;;;;;1.23;0.80;;;-3.80;1.00;;;;;;8299953;28;20217;-82
2023/03/28 20:00:08;;;;;;;3.07;1.10;;;-3.90;1.00;;;;;;8300995;28;20225;-83
2023/03/28 20:04:10;;;;;;;5.13;1.80;;;-3.90;1.00;;;;;;8299657;28;20205;-83
2023/03/28 20:08:12;;;;;;;1.40;0.87;;;-3.90;1.00;;;;;;8308616;28;20248;-82
2023/03/28 20:12:13;;;;;;;1.40;0.97;;;-3.90;1.00;;;;;;8301023;28;20182;-82
2023/03/28 20:16:14;;;;;;;1.03;0.90;;;-4.00;1.00;;;;;;8307611;28;20201;-82
2023/03/28 20:20:15;;;;;;;1.37;0.90;;;-4.10;1.00;;;;;;8300687;28;20214;-82
2023/03/28 20:24:17;;;;;;;3.70;1.60;;;-4.10;1.00;;;;;;8307808;28;20195;-83
2023/03/28 20:28:19;;;;;;;2.47;1.50;;;-4.10;99.90;;;;;;8301251;28;20250;-83
2023/03/28 20:32:20;;;;;;;2.57;1.50;;;-4.10;99.90;;;;;;8319380;28;20499;-83
2023/03/28 20:36:21;;;;;;;3.23;1.30;;;-4.20;99.00;;;;;;8305820;28;20210;-83
2023/03/28 20:40:23;;;;;;;4.07;2.10;;;-4.30;99.90;;;;;;8305125;28;20198;-82
2023/03/28 20:44:28;;;;;;;3.00;1.93;;;-4.30;99.90;;;;;;8300299;28;20191;-82
2023/03/28 20:48:38;;;;;;;3.87;2.10;;;-4.40;99.90;;;;;;8306388;28;20282;-83
2023/03/28 20:52:39;;;;;;;4.17;2.10;;;-4.40;99.90;;;;;;8304803;28;20195;-83
2023/03/28 20:56:40;;;;;;;5.90;2.53;;;-4.50;99.90;;;;;;8297565;28;20193;-82
2023/03/28 21:00:42;;;;;;;7.90;3.30;;;-4.50;99.90;;;;;;8307328;28;20198;-82
2023/03/28 21:04:43;;;;;;;5.47;2.80;;;-4.50;99.90;;;;;;8307659;28;20223;-82
2023/03/28 21:08:46;;;;;;;8.30;3.23;;;-4.60;99.90;;;;;;8300082;28;20214;-82
2023/03/28 21:12:47;;;;;;;5.53;3.10;;;-4.60;99.90;;;;;;8300257;28;20192;-83
2023/03/28 21:16:50;;;;;;;5.37;3.20;;;-4.60;1.00;;;;;;8299431;28;20230;-83
2023/03/28 21:20:51;;;;;;;8.77;3.87;;;-4.60;1.00;;;;;;8306704;28;20232;-82
2023/03/28 21:24:52;;;;;;;11.37;4.53;;;-4.70;1.00;;;;;;8313613;28;20270;-83
2023/03/28 21:28:53;;;;;;;9.80;4.73;;;-4.70;1.00;;;;;;8317525;28;20218;-82
2023/03/28 21:32:58;;;;;;;12.90;5.07;;;-4.70;1.00;;;;;;8320788;28;20277;-84
2023/03/28 21:36:59;;;;;;;14.43;5.60;;;-4.70;99.90;;;;;;8322495;28;20209;-83
2023/03/28 21:41:01;;;;;;;13.70;5.10;;;-4.70;99.90;;;;;;8310777;28;20228;-82
2023/03/28 21:45:02;;;;;;;15.33;6.00;;;-4.70;99.90;;;;;;8308896;28;20190;-82